createdAt,value
2018-09-29T00:00:58.346Z,9.41
2018-09-29T00:03:30.357Z,9.26
2018-09-29T00:06:02.371Z,9.26
2018-09-29T00:08:34.361Z,9.21
2018-09-29T00:11:06.333Z,9.16
2018-09-29T00:13:38.474Z,9.15
2018-09-29T00:16:10.812Z,9.19
2018-09-29T00:18:42.547Z,9.15
2018-09-29T00:21:14.480Z,9.08
2018-09-29T00:23:46.476Z,9.12
2018-09-29T00:26:18.611Z,9.09
2018-09-29T00:28:50.469Z,9.17
2018-09-29T00:31:22.402Z,9.13
2018-09-29T00:33:54.380Z,9.19
2018-09-29T00:36:26.342Z,9.16
2018-09-29T00:38:58.392Z,9.17
2018-09-29T00:41:30.346Z,9.18
2018-09-29T00:44:02.403Z,9.20
2018-09-29T00:46:34.369Z,9.07
2018-09-29T00:49:06.344Z,9.05
2018-09-29T00:51:38.341Z,9.07
2018-09-29T00:54:10.309Z,9.12
2018-09-29T00:56:42.360Z,8.94
2018-09-29T00:59:14.345Z,9.01
2018-09-29T01:01:46.345Z,8.94
2018-09-29T01:04:18.336Z,8.90
2018-09-29T01:06:50.345Z,8.90
2018-09-29T01:09:22.346Z,8.72
2018-09-29T01:11:54.344Z,8.79
2018-09-29T01:14:26.349Z,8.86
2018-09-29T01:16:58.333Z,8.76
2018-09-29T01:19:30.357Z,8.66
2018-09-29T01:22:02.372Z,8.69
2018-09-29T01:24:34.371Z,8.68
2018-09-29T01:27:06.368Z,8.64
2018-09-29T01:29:38.385Z,8.57
2018-09-29T01:32:10.346Z,8.68
2018-09-29T01:34:42.350Z,8.62
2018-09-29T01:37:14.351Z,8.53
2018-09-29T01:39:46.353Z,8.50
2018-09-29T01:42:18.366Z,8.42
2018-09-29T01:44:50.345Z,8.40
2018-09-29T01:47:22.496Z,8.36
2018-09-29T01:49:55.480Z,8.35
2018-09-29T01:52:27.454Z,8.29
2018-09-29T01:54:59.520Z,8.31
2018-09-29T01:57:31.537Z,8.25
2018-09-29T02:00:03.505Z,8.28
2018-09-29T02:02:35.478Z,8.18
2018-09-29T02:05:07.488Z,8.20
2018-09-29T02:07:39.485Z,8.21
2018-09-29T02:10:11.445Z,8.19
2018-09-29T02:12:43.469Z,8.08
2018-09-29T02:15:15.477Z,8.11
2018-09-29T02:17:47.467Z,8.12
2018-09-29T02:20:19.454Z,8.20
2018-09-29T02:22:51.458Z,8.22
2018-09-29T02:25:23.452Z,8.05
2018-09-29T02:30:39.669Z,8.09
2018-09-29T02:33:11.443Z,8.00
2018-09-29T02:35:43.440Z,8.08
2018-09-29T02:38:15.444Z,7.94
2018-09-29T02:40:47.449Z,7.98
2018-09-29T02:43:19.426Z,7.90
2018-09-29T02:45:51.408Z,7.97
2018-09-29T02:48:23.448Z,7.87
2018-09-29T02:50:55.693Z,7.87
2018-09-29T02:53:27.484Z,7.78
2018-09-29T02:55:59.538Z,7.80
2018-09-29T02:58:31.453Z,7.67
2018-09-29T03:01:03.463Z,7.66
2018-09-29T03:03:35.457Z,7.74
2018-09-29T03:06:07.465Z,7.71
2018-09-29T03:08:39.452Z,7.68
2018-09-29T03:11:11.577Z,7.64
2018-09-29T03:13:43.456Z,7.56
2018-09-29T03:16:15.470Z,7.64
2018-09-29T03:18:47.453Z,7.64
2018-09-29T03:21:19.466Z,7.56
2018-09-29T03:23:51.450Z,7.56
2018-09-29T03:26:23.465Z,7.58
2018-09-29T03:28:55.517Z,7.55
2018-09-29T03:31:27.556Z,7.59
2018-09-29T03:33:59.458Z,7.52
2018-09-29T03:36:31.497Z,7.51
2018-09-29T03:39:03.563Z,7.55
2018-09-29T03:41:35.488Z,7.39
2018-09-29T03:44:07.802Z,7.43
2018-09-29T03:46:40.004Z,7.44
2018-09-29T03:49:11.901Z,7.41
2018-09-29T03:51:43.636Z,7.39
2018-09-29T03:54:15.465Z,7.39
2018-09-29T03:56:47.451Z,7.37
2018-09-29T03:59:19.493Z,7.38
2018-09-29T04:01:51.484Z,7.36
2018-09-29T04:04:23.652Z,7.27
2018-09-29T04:06:55.728Z,7.26
2018-09-29T04:09:27.614Z,7.27
2018-09-29T04:14:43.581Z,7.22
2018-09-29T04:17:15.486Z,7.21
2018-09-29T04:19:47.455Z,7.15
2018-09-29T04:22:19.456Z,7.25
2018-09-29T04:24:51.497Z,7.15
2018-09-29T04:27:23.452Z,7.16
2018-09-29T04:29:55.645Z,7.05
2018-09-29T04:32:27.480Z,7.02
2018-09-29T04:34:59.463Z,6.95
2018-09-29T04:37:31.469Z,7.05
2018-09-29T04:40:03.448Z,6.88
2018-09-29T04:42:35.468Z,6.95
2018-09-29T04:45:07.459Z,6.93
2018-09-29T04:47:39.598Z,6.94
2018-09-29T04:50:11.464Z,6.96
2018-09-29T04:52:43.456Z,6.94
2018-09-29T04:55:15.492Z,6.82
2018-09-29T04:57:47.456Z,6.84
2018-09-29T05:00:19.461Z,6.80
2018-09-29T05:02:51.512Z,6.95
2018-09-29T05:05:23.481Z,6.77
2018-09-29T05:07:55.584Z,6.77
2018-09-29T05:10:27.490Z,6.80
2018-09-29T05:12:59.474Z,6.78
2018-09-29T05:15:31.480Z,6.81
2018-09-29T05:18:03.413Z,6.81
2018-09-29T05:20:35.393Z,6.77
2018-09-29T05:23:07.589Z,6.71
2018-09-29T05:25:39.487Z,6.72
2018-09-29T05:28:11.421Z,6.69
2018-09-29T05:30:43.528Z,6.75
2018-09-29T05:33:15.412Z,6.72
2018-09-29T05:35:47.639Z,6.76
2018-09-29T05:38:19.528Z,6.70
2018-09-29T05:40:51.401Z,6.82
2018-09-29T05:43:23.569Z,6.80
2018-09-29T05:45:55.475Z,6.84
2018-09-29T05:48:27.454Z,6.76
2018-09-29T05:50:59.579Z,6.76
2018-09-29T05:53:31.451Z,6.88
2018-09-29T05:56:03.560Z,7.01
2018-09-29T05:58:35.405Z,7.11
2018-09-29T06:01:07.435Z,7.13
2018-09-29T06:03:39.429Z,6.98
2018-09-29T06:06:11.423Z,7.03
2018-09-29T06:08:43.415Z,7.07
2018-09-29T06:11:15.418Z,7.09
2018-09-29T06:13:47.417Z,7.17
2018-09-29T06:16:19.532Z,7.14
2018-09-29T06:18:51.445Z,7.25
2018-09-29T06:21:23.491Z,7.21
2018-09-29T06:23:55.485Z,7.24
2018-09-29T06:26:27.473Z,7.35
2018-09-29T06:28:59.514Z,7.45
2018-09-29T06:31:31.679Z,7.47
2018-09-29T06:34:03.648Z,7.61
2018-09-29T06:36:35.545Z,7.64
2018-09-29T06:39:11.188Z,7.78
2018-09-29T06:41:43.471Z,7.78
2018-09-29T06:44:15.475Z,7.76
2018-09-29T06:46:47.536Z,7.76
2018-09-29T06:49:19.453Z,7.84
2018-09-29T06:51:51.454Z,7.90
2018-09-29T06:54:23.572Z,7.79
2018-09-29T06:56:55.467Z,8.00
2018-09-29T06:59:27.576Z,8.02
2018-09-29T07:01:59.477Z,8.11
2018-09-29T07:04:31.456Z,8.18
2018-09-29T07:07:03.673Z,8.23
2018-09-29T07:09:35.500Z,8.50
2018-09-29T07:12:07.496Z,8.87
2018-09-29T07:14:39.469Z,9.28
2018-09-29T07:17:11.506Z,9.23
2018-09-29T07:19:43.481Z,9.54
2018-09-29T07:22:15.447Z,9.80
2018-09-29T07:24:47.465Z,9.95
2018-09-29T07:27:19.490Z,9.67
2018-09-29T07:29:51.476Z,9.54
2018-09-29T07:32:23.473Z,9.72
2018-09-29T07:34:55.517Z,9.60
2018-09-29T07:37:27.505Z,9.71
2018-09-29T07:39:59.567Z,9.93
2018-09-29T07:42:31.533Z,10.35
2018-09-29T07:45:03.559Z,9.89
2018-09-29T07:47:35.520Z,9.89
2018-09-29T07:50:07.488Z,10.34
2018-09-29T07:52:39.479Z,10.44
2018-09-29T07:55:11.528Z,10.63
2018-09-29T07:57:43.478Z,10.57
2018-09-29T08:00:15.452Z,10.48
2018-09-29T08:02:47.558Z,10.90
2018-09-29T08:05:19.490Z,11.16
2018-09-29T08:07:52.370Z,11.63
2018-09-29T08:10:24.385Z,11.66
2018-09-29T08:12:56.388Z,11.97
2018-09-29T08:15:28.445Z,12.01
2018-09-29T08:18:00.476Z,11.67
2018-09-29T08:20:33.013Z,12.05
2018-09-29T08:23:05.282Z,12.01
2018-09-29T08:25:37.353Z,11.60
2018-09-29T08:28:09.481Z,12.20
2018-09-29T08:30:41.495Z,12.21
2018-09-29T08:33:14.506Z,13.23
2018-09-29T08:35:46.454Z,12.85
2018-09-29T08:38:18.492Z,13.33
2018-09-29T08:40:50.545Z,14.17
2018-09-29T08:43:22.488Z,14.04
2018-09-29T08:45:54.504Z,14.04
2018-09-29T08:48:26.485Z,13.76
2018-09-29T08:50:58.478Z,14.35
2018-09-29T08:53:30.583Z,14.33
2018-09-29T08:56:02.509Z,13.82
2018-09-29T08:58:34.532Z,14.11
2018-09-29T09:01:06.605Z,13.76
2018-09-29T09:03:38.487Z,14.33
2018-09-29T09:06:10.501Z,14.20
2018-09-29T09:08:42.529Z,14.63
2018-09-29T09:11:14.460Z,14.32
2018-09-29T09:13:46.480Z,14.55
2018-09-29T09:16:18.457Z,14.10
2018-09-29T09:18:50.650Z,14.20
2018-09-29T09:31:06.169Z,15.69
2018-09-29T09:33:36.317Z,15.04
2018-09-29T09:36:06.732Z,15.25
2018-09-29T09:38:36.757Z,14.81
2018-09-29T09:41:07.456Z,14.65
2018-09-29T09:43:37.770Z,14.75
2018-09-29T09:46:07.662Z,15.04
2018-09-29T09:48:37.730Z,14.68
2018-09-29T09:51:08.349Z,14.37
2018-09-29T09:53:38.417Z,14.32
2018-09-29T09:56:08.507Z,14.11
2018-09-29T09:58:42.749Z,14.20
2018-09-29T10:01:18.049Z,14.10
2018-09-29T10:03:48.057Z,14.28
2018-09-29T10:06:18.213Z,14.53
2018-09-29T10:08:48.199Z,14.09
2018-09-29T10:11:18.277Z,14.40
2018-09-29T10:13:48.330Z,14.29
2018-09-29T10:16:18.426Z,14.31
2018-09-29T10:18:48.505Z,13.93
2018-09-29T10:21:18.765Z,14.18
2018-09-29T10:23:49.354Z,14.31
2018-09-29T10:26:19.454Z,14.41
2018-09-29T10:28:49.955Z,14.34
2018-09-29T10:31:19.985Z,13.97
2018-09-29T10:33:50.041Z,13.96
2018-09-29T10:36:20.111Z,14.56
2018-09-29T10:38:50.314Z,14.93
2018-09-29T10:41:20.293Z,14.98
2018-09-29T10:43:50.394Z,15.14
2018-09-29T10:46:20.450Z,15.39
2018-09-29T10:48:50.546Z,15.01
2018-09-29T10:51:20.609Z,15.18
2018-09-29T10:53:50.665Z,15.04
2018-09-29T10:56:20.697Z,14.81
2018-09-29T10:58:50.800Z,15.08
2018-09-29T11:01:20.822Z,15.37
2018-09-29T11:03:50.848Z,15.47
2018-09-29T11:06:20.925Z,15.55
2018-09-29T11:08:50.993Z,15.22
2018-09-29T11:11:21.041Z,15.60
2018-09-29T11:13:51.061Z,16.55
2018-09-29T11:16:21.588Z,16.31
2018-09-29T11:18:51.617Z,16.30
2018-09-29T11:21:22.262Z,16.76
2018-09-29T11:23:52.369Z,17.10
2018-09-29T11:26:22.573Z,17.37
2018-09-29T11:28:52.630Z,17.46
2018-09-29T11:34:09.128Z,17.66
2018-09-29T11:36:39.151Z,17.71
2018-09-29T11:39:11.100Z,18.34
2018-09-29T11:41:41.288Z,18.90
2018-09-29T11:44:11.365Z,17.66
2018-09-29T11:46:41.381Z,19.22
2018-09-29T11:49:11.409Z,18.80
2018-09-29T11:51:41.651Z,18.39
2018-09-29T11:54:11.664Z,19.37
2018-09-29T11:56:41.664Z,18.72
2018-09-29T11:59:11.672Z,19.59
2018-09-29T12:01:41.726Z,19.21
2018-09-29T12:04:11.730Z,19.94
2018-09-29T12:06:41.785Z,20.45
2018-09-29T12:09:13.069Z,20.16
2018-09-29T12:11:43.224Z,19.87
2018-09-29T12:14:13.280Z,18.80
2018-09-29T12:16:43.403Z,19.88
2018-09-29T12:19:13.561Z,20.36
2018-09-29T12:21:43.712Z,19.58
2018-09-29T12:24:13.770Z,21.15
2018-09-29T12:26:43.842Z,20.03
2018-09-29T12:29:13.889Z,20.43
2018-09-29T12:31:43.953Z,21.12
2018-09-29T12:34:14.029Z,21.27
2018-09-29T12:36:44.106Z,20.62
2018-09-29T12:39:14.112Z,19.99
2018-09-29T12:41:44.181Z,19.48
2018-09-29T12:44:14.340Z,19.61
2018-09-29T12:46:44.361Z,20.34
2018-09-29T12:49:14.417Z,19.34
2018-09-29T12:51:44.470Z,18.57
2018-09-29T12:54:14.581Z,19.91
2018-09-29T12:56:44.697Z,18.45
2018-09-29T12:59:14.878Z,19.68
2018-09-29T13:01:44.986Z,19.94
2018-09-29T13:04:15.081Z,19.04
2018-09-29T13:06:45.153Z,20.73
2018-09-29T13:09:15.197Z,20.74
2018-09-29T13:11:45.355Z,20.87
2018-09-29T13:14:15.426Z,21.04
2018-09-29T13:16:45.520Z,20.61
2018-09-29T13:19:15.512Z,20.76
2018-09-29T13:21:45.608Z,21.04
2018-09-29T13:24:15.673Z,21.08
2018-09-29T13:26:45.792Z,21.76
2018-09-29T13:29:15.892Z,21.04
2018-09-29T13:31:46.135Z,21.28
2018-09-29T13:34:16.138Z,20.75
2018-09-29T13:36:46.233Z,20.85
2018-09-29T13:39:16.302Z,21.57
2018-09-29T13:41:46.378Z,21.09
2018-09-29T13:44:16.429Z,20.66
2018-09-29T13:46:46.449Z,20.27
2018-09-29T13:49:16.477Z,19.65
2018-09-29T13:51:46.547Z,20.33
2018-09-29T13:54:16.765Z,20.64
2018-09-29T13:56:46.796Z,20.41
2018-09-29T13:59:16.969Z,19.84
2018-09-29T14:01:47.277Z,19.35
2018-09-29T14:04:17.337Z,19.68
2018-09-29T14:06:47.369Z,20.96
2018-09-29T14:09:17.453Z,19.87
2018-09-29T14:11:47.481Z,19.82
2018-09-29T14:14:17.508Z,19.85
2018-09-29T14:16:47.529Z,19.23
2018-09-29T14:19:18.485Z,19.17
2018-09-29T14:21:48.573Z,18.91
2018-09-29T14:24:18.632Z,18.13
2018-09-29T14:26:48.701Z,18.58
2018-09-29T14:29:18.759Z,17.68
2018-09-29T14:31:48.881Z,17.55
2018-09-29T14:34:18.945Z,18.14
2018-09-29T14:36:49.060Z,18.31
2018-09-29T14:39:19.098Z,18.34
2018-09-29T14:41:49.151Z,18.28
2018-09-29T14:44:19.273Z,17.93
2018-09-29T14:46:49.273Z,17.56
2018-09-29T14:49:19.312Z,17.02
2018-09-29T14:51:49.362Z,17.06
2018-09-29T14:54:19.429Z,16.79
2018-09-29T14:56:49.473Z,16.97
2018-09-29T14:59:19.590Z,17.35
2018-09-29T15:01:49.812Z,17.26
2018-09-29T15:04:20.538Z,17.21
2018-09-29T15:06:50.642Z,17.09
2018-09-29T15:09:20.755Z,16.86
2018-09-29T15:11:50.822Z,16.65
2018-09-29T15:14:20.864Z,16.76
2018-09-29T15:16:50.933Z,16.80
2018-09-29T15:19:20.988Z,16.93
2018-09-29T15:21:51.032Z,16.78
2018-09-29T15:24:21.119Z,16.82
2018-09-29T15:26:51.164Z,16.86
2018-09-29T15:29:21.202Z,16.69
2018-09-29T15:31:51.256Z,16.75
2018-09-29T15:34:22.639Z,16.59
2018-09-29T15:36:52.781Z,16.63
2018-09-29T15:39:22.790Z,16.48
2018-09-29T15:41:52.937Z,16.45
2018-09-29T15:44:23.136Z,16.40
2018-09-29T15:46:53.189Z,16.47
2018-09-29T15:49:23.268Z,16.55
2018-09-29T15:51:53.334Z,16.33
2018-09-29T15:54:23.422Z,16.43
2018-09-29T15:56:53.533Z,16.24
2018-09-29T15:59:23.590Z,16.27
2018-09-29T16:01:53.667Z,16.13
2018-09-29T16:04:23.791Z,16.14
2018-09-29T16:06:53.836Z,16.16
2018-09-29T16:09:23.894Z,16.12
2018-09-29T16:11:53.947Z,16.07
2018-09-29T16:14:24.040Z,16.11
2018-09-29T16:16:54.120Z,15.98
2018-09-29T16:19:24.187Z,15.95
2018-09-29T16:21:54.261Z,15.93
2018-09-29T16:24:24.347Z,15.91
2018-09-29T16:26:54.558Z,15.83
2018-09-29T16:29:24.633Z,15.92
2018-09-29T16:31:54.740Z,15.71
2018-09-29T16:34:24.729Z,15.63
2018-09-29T16:36:54.773Z,15.68
2018-09-29T16:39:24.796Z,15.54
2018-09-29T16:41:54.823Z,15.44
2018-09-29T16:44:24.855Z,15.43
2018-09-29T16:46:54.859Z,15.39
2018-09-29T16:49:24.876Z,15.35
2018-09-29T16:51:54.913Z,15.30
2018-09-29T16:54:24.940Z,15.25
2018-09-29T16:56:54.969Z,15.15
2018-09-29T16:59:25.053Z,15.15
2018-09-29T17:01:55.033Z,15.09
2018-09-29T17:04:25.142Z,15.03
2018-09-29T17:06:55.097Z,14.99
2018-09-29T17:09:25.142Z,14.99
2018-09-29T17:11:55.201Z,14.95
2018-09-29T17:14:25.241Z,14.85
2018-09-29T17:16:55.288Z,14.81
2018-09-29T17:19:25.493Z,14.77
2018-09-29T17:21:55.607Z,14.67
2018-09-29T17:24:25.574Z,14.56
2018-09-29T17:26:55.600Z,14.51
2018-09-29T17:29:25.653Z,14.47
2018-09-29T17:31:55.770Z,14.45
2018-09-29T17:34:25.780Z,14.32
2018-09-29T17:36:55.801Z,14.26
2018-09-29T17:39:25.881Z,14.33
2018-09-29T17:41:55.905Z,14.29
2018-09-29T17:44:25.963Z,14.21
2018-09-29T17:46:56.101Z,14.18
2018-09-29T17:49:26.111Z,14.15
2018-09-29T17:51:56.168Z,14.13
2018-09-29T17:54:26.245Z,14.02
2018-09-29T17:56:56.274Z,13.97
2018-09-29T17:59:26.325Z,13.85
2018-09-29T18:01:56.375Z,13.78
2018-09-29T18:04:26.501Z,13.79
2018-09-29T18:06:56.456Z,13.78
2018-09-29T18:09:26.533Z,13.69
2018-09-29T18:11:56.594Z,13.60
2018-09-29T18:14:26.669Z,13.56
2018-09-29T18:16:56.716Z,13.55
2018-09-29T18:19:26.830Z,13.53
2018-09-29T18:21:57.308Z,13.43
2018-09-29T18:24:27.357Z,13.41
2018-09-29T18:26:57.415Z,13.41
2018-09-29T18:29:27.570Z,13.44
2018-09-29T18:31:57.627Z,13.37
2018-09-29T18:34:27.681Z,13.23
2018-09-29T18:36:57.948Z,13.23
2018-09-29T18:39:27.975Z,13.19
2018-09-29T18:41:58.085Z,13.04
2018-09-29T18:44:28.118Z,13.09
2018-09-29T18:46:58.244Z,13.07
2018-09-29T18:49:28.379Z,12.98
2018-09-29T18:51:58.393Z,12.97
2018-09-29T18:54:28.425Z,12.92
2018-09-29T18:56:58.525Z,12.84
2018-09-29T18:59:28.580Z,12.87
2018-09-29T19:01:58.653Z,12.85
2018-09-29T19:04:28.778Z,12.78
2018-09-29T19:06:58.841Z,12.78
2018-09-29T19:09:28.936Z,12.75
2018-09-29T19:11:59.088Z,12.62
2018-09-29T19:14:29.119Z,12.66
2018-09-29T19:16:59.161Z,12.63
2018-09-29T19:19:29.344Z,12.59
2018-09-29T19:21:59.391Z,12.52
2018-09-29T19:24:29.513Z,12.50
2018-09-29T19:26:59.553Z,12.44
2018-09-29T19:29:29.580Z,12.46
2018-09-29T19:31:59.645Z,12.45
2018-09-29T19:34:29.711Z,12.46
2018-09-29T19:36:59.765Z,12.41
2018-09-29T19:39:29.795Z,12.35
2018-09-29T19:41:59.816Z,12.29
2018-09-29T19:44:29.881Z,12.30
2018-09-29T19:47:00.545Z,12.28
2018-09-29T19:49:30.582Z,12.30
2018-09-29T19:52:00.695Z,12.28
2018-09-29T19:54:30.798Z,12.32
2018-09-29T19:57:01.518Z,12.30
2018-09-29T19:59:31.537Z,12.27
2018-09-29T20:02:01.669Z,12.25
2018-09-29T20:04:31.677Z,12.21
2018-09-29T20:07:01.718Z,12.13
2018-09-29T20:09:31.806Z,12.16
2018-09-29T20:12:02.005Z,12.08
2018-09-29T20:14:32.024Z,11.97
2018-09-29T20:17:02.079Z,11.85
2018-09-29T20:19:32.122Z,11.83
2018-09-29T20:22:02.204Z,11.71
2018-09-29T20:24:32.354Z,11.67
2018-09-29T20:27:02.351Z,11.61
2018-09-29T20:29:32.401Z,11.51
2018-09-29T20:32:03.114Z,11.51
2018-09-29T20:34:33.265Z,11.47
2018-09-29T20:37:03.366Z,11.47
2018-09-29T20:39:33.401Z,11.32
2018-09-29T20:42:03.454Z,11.35
2018-09-29T20:44:33.490Z,11.22
2018-09-29T20:47:03.551Z,11.21
2018-09-29T20:49:33.651Z,11.29
2018-09-29T20:52:03.657Z,11.18
2018-09-29T20:54:33.730Z,11.19
2018-09-29T20:57:03.785Z,11.22
2018-09-29T20:59:33.855Z,11.36
2018-09-29T21:02:03.930Z,11.15
2018-09-29T21:04:34.021Z,11.19
2018-09-29T21:07:04.056Z,11.18
2018-09-29T21:09:34.174Z,11.01
2018-09-29T21:12:04.258Z,11.02
2018-09-29T21:14:34.389Z,10.91
2018-09-29T21:17:04.544Z,10.76
2018-09-29T21:19:34.647Z,10.76
2018-09-29T21:22:04.693Z,10.81
2018-09-29T21:24:34.745Z,10.72
2018-09-29T21:27:04.827Z,10.60
2018-09-29T21:29:34.934Z,10.64
2018-09-29T21:32:05.074Z,10.57
2018-09-29T21:34:35.142Z,10.56
2018-09-29T21:37:05.156Z,10.52
2018-09-29T21:39:35.409Z,10.48
2018-09-29T21:42:05.449Z,10.52
2018-09-29T21:44:35.550Z,10.44
2018-09-29T21:47:05.571Z,10.45
2018-09-29T21:49:35.600Z,10.39
2018-09-29T21:52:05.742Z,10.35
2018-09-29T21:54:35.769Z,10.26
2018-09-29T21:57:05.938Z,10.25
2018-09-29T21:59:35.985Z,10.30
2018-09-29T22:02:06.005Z,10.27
2018-09-29T22:04:36.085Z,10.21
2018-09-29T22:07:06.111Z,10.21
2018-09-29T22:09:36.121Z,10.22
2018-09-29T22:12:06.132Z,10.17
2018-09-29T22:14:36.166Z,10.21
2018-09-29T22:17:06.193Z,10.19
2018-09-29T22:19:36.223Z,10.15
2018-09-29T22:22:06.250Z,9.92
2018-09-29T22:24:36.340Z,9.66
2018-09-29T22:27:06.380Z,9.75
2018-09-29T22:29:36.442Z,9.76
2018-09-29T22:32:06.566Z,9.60
2018-09-29T22:34:36.601Z,9.51
2018-09-29T22:37:06.719Z,9.61
2018-09-29T22:39:36.728Z,9.58
2018-09-29T22:42:06.780Z,9.69
2018-09-29T22:44:36.802Z,9.66
2018-09-29T22:47:06.897Z,9.61
2018-09-29T22:49:36.921Z,9.57
2018-09-29T22:52:07.020Z,9.44
2018-09-29T22:54:37.061Z,9.47
2018-09-29T22:57:07.114Z,9.54
2018-09-29T22:59:37.142Z,9.50
2018-09-29T23:02:07.845Z,9.48
2018-09-29T23:04:37.923Z,9.48
2018-09-29T23:07:07.890Z,9.48
2018-09-29T23:09:37.914Z,9.51
2018-09-29T23:12:07.954Z,9.37
2018-09-29T23:14:38.022Z,9.33
2018-09-29T23:17:08.025Z,9.31
2018-09-29T23:19:38.104Z,9.38
2018-09-29T23:22:08.129Z,9.21
2018-09-29T23:24:38.184Z,9.31
2018-09-29T23:27:08.197Z,9.18
2018-09-29T23:29:38.255Z,9.08
2018-09-29T23:32:08.221Z,9.02
2018-09-29T23:34:38.247Z,8.89
2018-09-29T23:37:08.306Z,8.77
2018-09-29T23:39:38.317Z,8.81
2018-09-29T23:42:08.380Z,8.73
2018-09-29T23:44:38.385Z,8.59
2018-09-29T23:47:08.644Z,8.55
2018-09-29T23:49:39.281Z,8.54
2018-09-29T23:52:09.349Z,8.52
2018-09-29T23:54:39.396Z,8.42
2018-09-29T23:57:09.519Z,8.42
2018-09-29T23:59:39.539Z,8.42
